Wetterdaten: Woche 23.04.12 - 29.04.12 (KW17)
Datum Zeit Temp. A. Feuchte A. Luftdruck Regen Wind Richtung Taupunkt Windchill Windben
23.04.2012 00:00 9,2 C 67 % 1010,4 hPa 0,0 l/m 5,9 km/h N 3,3 C 8,6 C 19,3 km/h
23.04.2012 01:00 8,8 C 68 % 1010,3 hPa 0,0 l/m 3,8 km/h N 3,3 C 8,8 C 16,1 km/h
23.04.2012 02:00 8,3 C 70 % 1010,5 hPa 0,0 l/m 2,3 km/h N 3,1 C 8,3 C 10,4 km/h
23.04.2012 03:00 8,4 C 69 % 1010,7 hPa 0,0 l/m 5,1 km/h N 3,1 C 8,4 C 16,9 km/h
23.04.2012 04:00 7,8 C 71 % 1010,9 hPa 0,0 l/m 0,3 km/h N 2,7 C 7,8 C 4,4 km/h
23.04.2012 05:00 5,6 C 75 % 1011,0 hPa 0,0 l/m 0,0 km/h N 1,5 C 5,6 C 0,0 km/h
23.04.2012 06:00 3,6 C 81 % 1011,4 hPa 0,0 l/m 0,0 km/h N 0,6 C 3,6 C 0,8 km/h
23.04.2012 07:00 5,0 C 83 % 1011,5 hPa 0,0 l/m 0,0 km/h N 2,2 C 5,0 C 1,2 km/h
23.04.2012 08:00 9,3 C 73 % 1011,5 hPa 0,0 l/m 1,1 km/h N 4,7 C 9,3 C 6,0 km/h
23.04.2012 09:00 12,3 C 58 % 1011,2 hPa 0,0 l/m 2,8 km/h N 4,2 C 12,3 C 9,7 km/h
23.04.2012 10:00 14,1 C 49 % 1010,7 hPa 0,0 l/m 5,4 km/h N 3,5 C 13,9 C 15,3 km/h
23.04.2012 11:00 15,2 C 45 % 1010,1 hPa 0,0 l/m 6,6 km/h N 3,2 C 15,0 C 19,7 km/h
23.04.2012 12:00 16,1 C 40 % 1009,3 hPa 0,0 l/m 6,7 km/h N 2,3 C 15,6 C 22,1 km/h
23.04.2012 13:00 15,9 C 39 % 1008,7 hPa 0,0 l/m 6,9 km/h N 1,9 C 15,4 C 20,1 km/h
23.04.2012 14:00 15,8 C 45 % 1008,0 hPa 0,0 l/m 7,4 km/h N 3,7 C 15,3 C 19,7 km/h
23.04.2012 15:00 15,4 C 49 % 1007,3 hPa 0,0 l/m 11,0 km/h N 4,7 C 13,2 C 26,5 km/h
23.04.2012 16:00 15,1 C 53 % 1006,8 hPa 0,0 l/m 12,6 km/h N 5,5 C 12,2 C 33,0 km/h
23.04.2012 17:00 13,7 C 61 % 1006,5 hPa 0,3 l/m 10,9 km/h N 6,3 C 11,3 C 26,9 km/h
23.04.2012 18:00 13,6 C 63 % 1006,1 hPa 0,0 l/m 6,0 km/h N 6,7 C 13,2 C 17,7 km/h
23.04.2012 19:00 13,6 C 62 % 1005,4 hPa 0,0 l/m 8,7 km/h N 6,6 C 12,4 C 26,1 km/h
23.04.2012 20:00 11,5 C 70 % 1005,3 hPa 0,0 l/m 7,9 km/h N 6,2 C 10,5 C 22,5 km/h
23.04.2012 21:00 10,3 C 76 % 1004,8 hPa 0,0 l/m 2,8 km/h N 6,2 C 10,3 C 11,7 km/h
23.04.2012 22:00 9,4 C 78 % 1004,2 hPa 0,0 l/m 2,7 km/h N 5,8 C 9,4 C 7,6 km/h
23.04.2012 23:00 9,2 C 80 % 1003,7 hPa 0,0 l/m 2,3 km/h N 5,9 C 9,2 C 8,4 km/h
24.04.2012 00:00 8,9 C 81 % 1003,3 hPa 0,0 l/m 1,6 km/h N 5,9 C 8,9 C 6,8 km/h
24.04.2012 01:00 8,8 C 82 % 1002,5 hPa 0,0 l/m 2,0 km/h N 5,9 C 8,8 C 7,3 km/h
24.04.2012 02:00 7,7 C 82 % 1002,1 hPa 0,0 l/m 0,4 km/h N 4,7 C 7,7 C 2,0 km/h
24.04.2012 03:00 5,3 C 82 % 1002,0 hPa 0,0 l/m 0,0 km/h N 2,5 C 5,3 C 0,0 km/h
24.04.2012 04:00 3,8 C 83 % 1001,7 hPa 0,0 l/m 0,0 km/h N 1,2 C 3,8 C 0,0 km/h
24.04.2012 05:00 3,1 C 83 % 1001,4 hPa 0,0 l/m 0,0 km/h N 0,4 C 3,1 C 0,0 km/h
24.04.2012 06:00 3,5 C 82 % 1001,0 hPa 0,0 l/m 0,0 km/h N 0,7 C 3,5 C 0,0 km/h
24.04.2012 07:00 5,3 C 79 % 1000,6 hPa 0,0 l/m 0,4 km/h N 2,0 C 5,3 C 2,4 km/h
24.04.2012 08:00 7,1 C 79 % 1000,1 hPa 0,0 l/m 1,0 km/h N 3,7 C 7,1 C 4,4 km/h
24.04.2012 09:00 9,1 C 82 % 999,8 hPa 0,0 l/m 0,4 km/h N 6,1 C 9,1 C 3,2 km/h
24.04.2012 10:00 13,2 C 68 % 999,0 hPa 0,0 l/m 3,4 km/h N 7,3 C 13,2 C 11,3 km/h
24.04.2012 11:00 16,6 C 52 % 998,2 hPa 0,0 l/m 10,9 km/h N 6,6 C 14,6 C 27,3 km/h
24.04.2012 12:00 18,1 C 42 % 997,7 hPa 0,0 l/m 14,1 km/h N 4,9 C 15,3 C 34,6 km/h
24.04.2012 13:00 18,5 C 44 % 998,0 hPa 0,0 l/m 14,4 km/h N 6,0 C 15,6 C 33,8 km/h
24.04.2012 14:00 18,4 C 45 % 998,1 hPa 0,0 l/m 13,2 km/h N 6,3 C 15,8 C 31,8 km/h
24.04.2012 15:00 16,1 C 52 % 998,6 hPa 0,0 l/m 13,7 km/h N 6,1 C 13,0 C 35,0 km/h
24.04.2012 16:00 15,8 C 54 % 998,9 hPa 0,0 l/m 11,5 km/h N 6,5 C 13,4 C 30,2 km/h
24.04.2012 17:00 15,5 C 56 % 997,9 hPa 0,0 l/m 14,7 km/h N 6,8 C 11,9 C 36,2 km/h
24.04.2012 18:00 15,4 C 57 % 997,6 hPa 0,0 l/m 10,8 km/h N 6,9 C 13,3 C 27,0 km/h
24.04.2012 19:00 12,3 C 58 % 999,4 hPa 0,0 l/m 9,7 km/h N 4,3 C 10,3 C 26,5 km/h
24.04.2012 20:00 9,5 C 64 % 1000,9 hPa 0,0 l/m 9,1 km/h N 3,0 C 7,6 C 32,2 km/h
24.04.2012 21:00 9,3 C 64 % 1001,7 hPa 0,0 l/m 7,1 km/h N 2,8 C 8,5 C 23,3 km/h
24.04.2012 22:00 9,5 C 61 % 1001,7 hPa 0,0 l/m 5,0 km/h N 2,3 C 9,5 C 18,5 km/h
24.04.2012 23:00 10,0 C 57 % 1002,4 hPa 0,0 l/m 2,7 km/h N 1,9 C 10,0 C 16,9 km/h
25.04.2012 00:00 9,5 C 60 % 1003,5 hPa 0,0 l/m 0,3 km/h N 2,0 C 9,5 C 6,0 km/h
25.04.2012 01:00 6,9 C 70 % 1004,3 hPa 0,0 l/m 0,8 km/h N 1,9 C 6,9 C 4,8 km/h
25.04.2012 02:00 6,1 C 76 % 1004,9 hPa 0,0 l/m 0,2 km/h N 2,1 C 6,1 C 3,2 km/h
25.04.2012 03:00 5,5 C 78 % 1005,8 hPa 0,0 l/m 0,4 km/h N 1,9 C 5,5 C 4,8 km/h
25.04.2012 04:00 8,5 C 69 % 1005,8 hPa 0,0 l/m 3,9 km/h N 3,0 C 8,5 C 18,5 km/h
25.04.2012 05:00 9,5 C 64 % 1006,6 hPa 0,0 l/m 4,6 km/h N 3,0 C 9,5 C 19,7 km/h
25.04.2012 06:00 9,5 C 64 % 1007,4 hPa 0,0 l/m 4,8 km/h N 3,1 C 9,5 C 17,3 km/h
25.04.2012 07:00 10,2 C 63 % 1008,4 hPa 0,0 l/m 8,6 km/h N 3,5 C 8,7 C 24,1 km/h
25.04.2012 08:00 11,6 C 60 % 1009,0 hPa 0,0 l/m 9,0 km/h N 4,0 C 9,9 C 25,3 km/h
25.04.2012 09:00 12,4 C 56 % 1009,5 hPa 0,0 l/m 11,3 km/h N 3,7 C 9,6 C 29,0 km/h
25.04.2012 10:00 14,1 C 50 % 1009,7 hPa 0,0 l/m 7,8 km/h N 3,8 C 13,3 C 24,9 km/h
25.04.2012 11:00 15,7 C 43 % 1009,5 hPa 0,0 l/m 7,2 km/h N 3,3 C 15,2 C 18,1 km/h
25.04.2012 12:00 17,2 C 36 % 1009,3 hPa 0,0 l/m 8,4 km/h N 2,0 C 16,2 C 20,9 km/h
25.04.2012 13:00 17,9 C 35 % 1008,8 hPa 0,0 l/m 6,9 km/h N 2,3 C 17,0 C 16,1 km/h
25.04.2012 14:00 19,9 C 32 % 1008,3 hPa 0,0 l/m 4,3 km/h N 2,5 C 19,9 C 13,3 km/h
25.04.2012 15:00 19,8 C 35 % 1007,9 hPa 0,0 l/m 6,1 km/h N 4,0 C 19,7 C 19,3 km/h
25.04.2012 16:00 19,1 C 39 % 1007,5 hPa 0,0 l/m 5,1 km/h N 4,9 C 19,0 C 18,5 km/h
25.04.2012 17:00 19,1 C 37 % 1007,1 hPa 0,0 l/m 9,4 km/h N 4,0 C 18,0 C 26,1 km/h
25.04.2012 18:00 19,0 C 38 % 1006,9 hPa 0,0 l/m 9,9 km/h N 4,4 C 17,6 C 23,7 km/h
25.04.2012 19:00 18,5 C 39 % 1006,9 hPa 0,0 l/m 7,5 km/h N 4,2 C 17,9 C 19,3 km/h
25.04.2012 20:00 16,8 C 44 % 1007,4 hPa 0,0 l/m 2,8 km/h N 4,4 C 16,8 C 8,0 km/h
25.04.2012 21:00 15,1 C 49 % 1007,7 hPa 0,0 l/m 2,2 km/h N 4,3 C 15,1 C 7,2 km/h
25.04.2012 22:00 13,9 C 54 % 1007,8 hPa 0,0 l/m 0,6 km/h N 4,8 C 13,9 C 5,2 km/h
25.04.2012 23:00 12,2 C 60 % 1008,0 hPa 0,0 l/m 0,6 km/h N 4,5 C 12,2 C 2,0 km/h
26.04.2012 00:00 8,5 C 72 % 1008,4 hPa 0,0 l/m 0,0 km/h N 3,6 C 8,5 C 0,0 km/h
26.04.2012 01:00 6,5 C 78 % 1008,5 hPa 0,0 l/m 0,0 km/h N 2,9 C 6,5 C 0,4 km/h
26.04.2012 02:00 5,4 C 80 % 1008,6 hPa 0,0 l/m 0,0 km/h N 2,3 C 5,4 C 0,8 km/h
26.04.2012 03:00 4,6 C 82 % 1009,3 hPa 0,0 l/m 0,0 km/h N 1,7 C 4,6 C 1,2 km/h
26.04.2012 04:00 4,0 C 83 % 1009,9 hPa 0,0 l/m 0,0 km/h N 1,4 C 4,0 C 0,0 km/h
26.04.2012 05:00 3,8 C 83 % 1010,3 hPa 0,0 l/m 0,0 km/h N 1,1 C 3,8 C 0,0 km/h
26.04.2012 06:00 3,6 C 82 % 1010,5 hPa 0,0 l/m 0,0 km/h N 0,8 C 3,6 C 0,0 km/h
26.04.2012 07:00 5,6 C 80 % 1011,0 hPa 0,0 l/m 0,1 km/h N 2,4 C 5,6 C 1,2 km/h
26.04.2012 08:00 9,4 C 80 % 1011,5 hPa 0,0 l/m 0,6 km/h N 6,1 C 9,4 C 4,8 km/h
26.04.2012 09:00 12,8 C 69 % 1011,8 hPa 0,0 l/m 1,1 km/h N 7,2 C 12,8 C 9,6 km/h
26.04.2012 10:00 15,2 C 63 % 1012,0 hPa 0,0 l/m 1,8 km/h N 8,2 C 15,2 C 8,4 km/h
26.04.2012 11:00 17,4 C 56 % 1012,2 hPa 0,0 l/m 3,3 km/h N 8,6 C 17,4 C 13,3 km/h
26.04.2012 12:00 19,3 C 50 % 1012,0 hPa 0,0 l/m 4,9 km/h N 8,5 C 19,3 C 18,5 km/h
26.04.2012 13:00 20,6 C 46 % 1011,8 hPa 0,0 l/m 5,8 km/h N 8,5 C 20,5 C 18,1 km/h
26.04.2012 14:00 21,9 C 43 % 1011,6 hPa 0,0 l/m 6,4 km/h N 8,8 C 21,7 C 21,7 km/h
26.04.2012 15:00 22,4 C 42 % 1011,5 hPa 0,0 l/m 6,1 km/h N 8,8 C 22,3 C 20,1 km/h
26.04.2012 16:00 22,1 C 43 % 1011,5 hPa 0,0 l/m 4,3 km/h N 8,8 C 22,1 C 16,5 km/h
26.04.2012 17:00 22,7 C 42 % 1011,3 hPa 0,0 l/m 3,5 km/h N 9,0 C 22,7 C 14,1 km/h
26.04.2012 18:00 22,5 C 42 % 1011,4 hPa 0,0 l/m 1,9 km/h N 8,7 C 22,5 C 13,7 km/h
26.04.2012 19:00 21,5 C 45 % 1011,7 hPa 0,0 l/m 0,3 km/h N 8,9 C 21,5 C 3,2 km/h
26.04.2012 20:00 18,0 C 53 % 1012,3 hPa 0,0 l/m 0,0 km/h N 8,1 C 18,0 C 0,0 km/h
26.04.2012 21:00 14,7 C 64 % 1012,8 hPa 0,0 l/m 0,0 km/h N 8,0 C 14,7 C 0,4 km/h
26.04.2012 22:00 12,8 C 71 % 1013,0 hPa 0,0 l/m 0,0 km/h N 7,7 C 12,8 C 0,4 km/h
26.04.2012 23:00 11,1 C 77 % 1013,3 hPa 0,0 l/m 0,0 km/h N 7,1 C 11,1 C 0,4 km/h
27.04.2012 00:00 9,9 C 79 % 1013,6 hPa 0,0 l/m 0,0 km/h N 6,4 C 9,9 C 0,0 km/h
27.04.2012 01:00 8,9 C 82 % 1013,8 hPa 0,0 l/m 0,0 km/h N 6,0 C 8,9 C 0,0 km/h
27.04.2012 02:00 8,2 C 82 % 1014,0 hPa 0,0 l/m 0,0 km/h N 5,3 C 8,2 C 0,0 km/h
27.04.2012 03:00 7,5 C 82 % 1014,5 hPa 0,0 l/m 0,0 km/h N 4,6 C 7,5 C 0,0 km/h
27.04.2012 04:00 7,0 C 82 % 1014,9 hPa 0,0 l/m 0,0 km/h N 4,1 C 7,0 C 0,0 km/h
27.04.2012 05:00 6,4 C 82 % 1015,5 hPa 0,0 l/m 0,0 km/h N 3,5 C 6,4 C 0,0 km/h
27.04.2012 06:00 6,1 C 81 % 1016,1 hPa 0,0 l/m 0,0 km/h N 3,1 C 6,1 C 0,0 km/h
27.04.2012 07:00 8,0 C 79 % 1017,0 hPa 0,0 l/m 0,2 km/h N 4,5 C 8,0 C 1,6 km/h
27.04.2012 08:00 12,5 C 78 % 1017,5 hPa 0,0 l/m 0,5 km/h N 8,7 C 12,5 C 4,8 km/h
27.04.2012 09:00 16,3 C 63 % 1017,9 hPa 0,0 l/m 1,0 km/h N 9,1 C 16,3 C 5,6 km/h
27.04.2012 10:00 18,6 C 57 % 1018,3 hPa 0,0 l/m 1,5 km/h N 9,9 C 18,6 C 6,4 km/h
27.04.2012 11:00 20,8 C 51 % 1018,5 hPa 0,0 l/m 2,1 km/h N 10,3 C 20,8 C 8,9 km/h
27.04.2012 12:00 22,4 C 46 % 1018,4 hPa 0,0 l/m 2,7 km/h N 10,1 C 22,4 C 10,9 km/h
27.04.2012 13:00 23,9 C 43 % 1018,3 hPa 0,0 l/m 2,3 km/h N 10,5 C 23,9 C 10,5 km/h
27.04.2012 14:00 24,8 C 41 % 1018,3 hPa 0,0 l/m 2,6 km/h N 10,6 C 24,8 C 9,6 km/h
27.04.2012 15:00 24,2 C 41 % 1018,2 hPa 0,0 l/m 2,5 km/h N 10,2 C 24,2 C 11,3 km/h
27.04.2012 16:00 23,7 C 41 % 1018,2 hPa 0,0 l/m 3,5 km/h N 9,5 C 23,7 C 14,1 km/h
27.04.2012 17:00 23,7 C 41 % 1018,2 hPa 0,0 l/m 2,2 km/h N 9,5 C 23,7 C 10,9 km/h
27.04.2012 18:00 23,9 C 41 % 1018,1 hPa 0,0 l/m 1,3 km/h N 9,7 C 23,9 C 8,4 km/h
27.04.2012 19:00 23,3 C 44 % 1018,2 hPa 0,0 l/m 0,3 km/h N 10,3 C 23,3 C 4,4 km/h
27.04.2012 20:00 20,5 C 51 % 1018,8 hPa 0,0 l/m 0,2 km/h N 9,9 C 20,5 C 2,0 km/h
27.04.2012 21:00 16,1 C 64 % 1019,5 hPa 0,0 l/m 0,0 km/h N 9,2 C 16,1 C 0,0 km/h
27.04.2012 22:00 13,5 C 73 % 1019,8 hPa 0,0 l/m 0,0 km/h N 8,7 C 13,5 C 0,0 km/h
27.04.2012 23:00 12,0 C 77 % 1019,9 hPa 0,0 l/m 0,0 km/h N 8,1 C 12,0 C 0,0 km/h
28.04.2012 00:00 10,7 C 80 % 1020,0 hPa 0,0 l/m 0,0 km/h N 7,4 C 10,7 C 0,0 km/h
28.04.2012 01:00 9,7 C 82 % 1019,9 hPa 0,0 l/m 0,0 km/h N 6,7 C 9,7 C 0,0 km/h
28.04.2012 02:00 8,8 C 82 % 1019,8 hPa 0,0 l/m 0,0 km/h N 5,9 C 8,8 C 0,0 km/h
28.04.2012 03:00 8,3 C 82 % 1020,1 hPa 0,0 l/m 0,0 km/h N 5,3 C 8,3 C 0,0 km/h
28.04.2012 04:00 7,8 C 81 % 1020,3 hPa 0,0 l/m 0,0 km/h N 4,7 C 7,8 C 0,4 km/h
28.04.2012 05:00 7,4 C 81 % 1020,2 hPa 0,0 l/m 0,0 km/h N 4,3 C 7,4 C 0,0 km/h
28.04.2012 06:00 7,1 C 80 % 1020,4 hPa 0,0 l/m 0,0 km/h N 4,0 C 7,1 C 0,0 km/h
28.04.2012 07:00 8,4 C 78 % 1020,4 hPa 0,0 l/m 0,0 km/h N 4,7 C 8,4 C 0,4 km/h
28.04.2012 08:00 12,0 C 76 % 1020,5 hPa 0,0 l/m 0,1 km/h N 7,9 C 12,0 C 2,4 km/h
28.04.2012 09:00 16,4 C 72 % 1020,2 hPa 0,0 l/m 1,3 km/h N 11,2 C 16,4 C 7,2 km/h
28.04.2012 10:00 21,1 C 56 % 1019,8 hPa 0,0 l/m 3,5 km/h N 11,9 C 21,0 C 14,1 km/h
28.04.2012 11:00 24,7 C 44 % 1019,1 hPa 0,0 l/m 7,1 km/h N 11,6 C 24,5 C 21,3 km/h
28.04.2012 12:00 26,0 C 42 % 1018,6 hPa 0,0 l/m 9,6 km/h N 12,0 C 25,3 C 27,8 km/h
28.04.2012 13:00 27,0 C 38 % 1018,1 hPa 0,0 l/m 12,6 km/h N 11,4 C 26,1 C 33,4 km/h
28.04.2012 14:00 27,8 C 35 % 1017,6 hPa 0,0 l/m 14,5 km/h N 10,8 C 26,8 C 33,8 km/h
28.04.2012 15:00 27,7 C 35 % 1017,2 hPa 0,0 l/m 15,2 km/h N 10,8 C 26,5 C 31,8 km/h
28.04.2012 16:00 27,7 C 36 % 1016,6 hPa 0,0 l/m 13,9 km/h N 11,1 C 26,7 C 30,2 km/h
28.04.2012 17:00 27,6 C 36 % 1016,3 hPa 0,0 l/m 14,0 km/h N 11,2 C 26,5 C 31,0 km/h
28.04.2012 18:00 27,3 C 36 % 1016,0 hPa 0,0 l/m 13,0 km/h N 10,7 C 26,3 C 29,0 km/h
28.04.2012 19:00 26,5 C 35 % 1016,0 hPa 0,0 l/m 8,2 km/h N 9,8 C 26,1 C 20,1 km/h
28.04.2012 20:00 24,9 C 39 % 1016,0 hPa 0,0 l/m 9,6 km/h N 9,8 C 24,1 C 20,9 km/h
28.04.2012 21:00 23,4 C 43 % 1016,5 hPa 0,0 l/m 4,8 km/h N 10,1 C 23,2 C 13,7 km/h
28.04.2012 22:00 20,7 C 50 % 1016,5 hPa 0,0 l/m 0,1 km/h N 10,0 C 20,7 C 2,0 km/h
28.04.2012 23:00 17,5 C 60 % 1016,5 hPa 0,0 l/m 0,1 km/h N 9,5 C 17,5 C 1,6 km/h
29.04.2012 00:00 17,1 C 58 % 1016,4 hPa 0,0 l/m 1,0 km/h N 8,7 C 17,1 C 7,2 km/h
29.04.2012 01:00 15,9 C 62 % 1016,2 hPa 0,0 l/m 0,2 km/h N 8,5 C 15,9 C 2,4 km/h
29.04.2012 02:00 18,0 C 53 % 1015,6 hPa 0,0 l/m 4,6 km/h N 8,3 C 17,9 C 12,9 km/h
29.04.2012 03:00 19,6 C 47 % 1015,3 hPa 0,0 l/m 6,2 km/h N 7,9 C 19,4 C 17,3 km/h
29.04.2012 04:00 18,5 C 50 % 1014,8 hPa 0,0 l/m 7,3 km/h N 7,8 C 18,1 C 16,5 km/h
29.04.2012 05:00 18,1 C 51 % 1014,6 hPa 0,0 l/m 5,9 km/h N 7,9 C 18,1 C 14,9 km/h
29.04.2012 06:00 17,6 C 54 % 1014,6 hPa 0,0 l/m 3,7 km/h N 8,2 C 17,6 C 9,3 km/h
29.04.2012 07:00 17,8 C 56 % 1014,7 hPa 0,0 l/m 1,8 km/h N 8,7 C 17,8 C 7,6 km/h
29.04.2012 08:00 19,5 C 52 % 1014,6 hPa 0,0 l/m 3,5 km/h N 9,3 C 19,5 C 9,7 km/h
29.04.2012 09:00 22,6 C 42 % 1014,3 hPa 0,0 l/m 9,1 km/h N 9,1 C 21,8 C 22,1 km/h
29.04.2012 10:00 24,8 C 38 % 1013,9 hPa 0,0 l/m 12,1 km/h N 9,6 C 23,5 C 26,6 km/h
29.04.2012 11:00 26,5 C 36 % 1013,5 hPa 0,0 l/m 12,6 km/h N 10,3 C 25,4 C 29,4 km/h
29.04.2012 12:00 27,5 C 34 % 1013,4 hPa 0,0 l/m 14,3 km/h N 10,2 C 26,4 C 29,4 km/h
29.04.2012 13:00 28,3 C 33 % 1013,0 hPa 0,0 l/m 15,2 km/h N 10,5 C 27,3 C 32,6 km/h
29.04.2012 14:00 29,0 C 31 % 1012,3 hPa 0,0 l/m 15,9 km/h N 10,2 C 28,1 C 33,4 km/h
29.04.2012 15:00 28,8 C 30 % 1011,8 hPa 0,0 l/m 16,0 km/h N 9,4 C 27,8 C 33,8 km/h
29.04.2012 16:00 29,1 C 27 % 1010,8 hPa 0,0 l/m 15,6 km/h N 7,9 C 28,3 C 35,8 km/h
29.04.2012 17:00 29,1 C 26 % 1010,4 hPa 0,0 l/m 11,6 km/h N 7,5 C 28,5 C 29,0 km/h
29.04.2012 18:00 28,5 C 28 % 1010,3 hPa 0,0 l/m 10,8 km/h N 8,2 C 27,9 C 27,0 km/h
29.04.2012 19:00 27,3 C 30 % 1010,3 hPa 0,0 l/m 8,4 km/h N 8,3 C 27,0 C 20,1 km/h
29.04.2012 20:00 25,8 C 33 % 1010,0 hPa 0,0 l/m 9,4 km/h N 8,1 C 25,2 C 22,1 km/h
29.04.2012 21:00 24,1 C 37 % 1010,5 hPa 0,0 l/m 3,5 km/h N 8,4 C 23,9 C 11,3 km/h
29.04.2012 22:00 21,9 C 41 % 1010,8 hPa 0,0 l/m 1,6 km/h N 8,2 C 21,9 C 5,6 km/h
29.04.2012 23:00 20,6 C 44 % 1010,8 hPa 0,0 l/m 2,8 km/h N 7,9 C 20,6 C 7,3 km/h
Min-Datum _ 24.04.12 29.04.12 24.04.12 - 23.04.12 - 24.04.12 24.04.12 23.04.12
_ Min-Zeit 05:30 17:15 18:15 - 04:45 - 05:30 05:30 05:00
Minimum _ 2,9 C 25 % 997,5 hPa - 0,0 km/h - 0,2 C 3,0 C 0,0 km/h
Max-Datum _ 29.04.12 23.04.12 28.04.12 23.04.12 24.04.12 - 28.04.12 29.04.12 24.04.12
_ Max-Zeit 14:15 07:00 08:15 17:15 17:30 - 10:15 17:15 12:30
Maximum _ 29,3 C 83 % 1020,6 hPa 0,3 l/m 17,7 km/h
N
- 12,7 C 28,7 C 41,8 km/h
N
Durchschnitt _ 15,3 C 58 % 1010,9 hPa #0,3 l/m 4,6 km/h N 6,2 C 14,9 C 13,1 km/h